Time;durP1;ratioP1;P1;durP2;ratioP2;P2;SDS_P1;SDS_P2;PMS_P1;PMS_P2;Temp;Humidity;BMP_temperature;BMP_pressure;BME280_temperature;BME280_humidity;BME280_pressure;Samples;Min_cycle;Max_cycle;Signal;HPM_P1;HPM_P2
2024/02/04 00:00:42;;;;;;;6.63;2.77;;;8.30;1.00;;;;;;5065022;28;20445;-88
2024/02/04 00:03:09;;;;;;;7.00;2.33;;;8.30;1.00;;;;;;5070417;28;20427;-87
2024/02/04 00:05:35;;;;;;;6.83;3.13;;;8.20;1.00;;;;;;5074919;28;20509;-88
2024/02/04 00:08:02;;;;;;;5.77;2.90;;;8.20;1.00;;;;;;5077278;28;20536;-88
2024/02/04 00:10:29;;;;;;;7.50;3.00;;;8.10;99.90;;;;;;5075773;28;20420;-87
2024/02/04 00:12:56;;;;;;;10.20;2.90;;;8.30;1.00;;;;;;5066284;28;20480;-88
2024/02/04 00:15:23;;;;;;;3.50;2.30;;;8.20;1.00;;;;;;5081384;28;20437;-87
2024/02/04 00:17:52;;;;;;;8.40;2.63;;;8.20;1.00;;;;;;5081142;28;20422;-87
2024/02/04 00:20:19;;;;;;;5.87;3.13;;;8.30;1.00;;;;;;5081253;28;20481;-86
2024/02/04 00:23:00;;;;;;;3.97;2.17;;;8.30;1.00;;;;;;5081180;28;20453;-87
2024/02/04 00:25:30;;;;;;;7.00;3.30;;;8.40;1.00;;;;;;5080405;28;20435;-86
2024/02/04 00:27:57;;;;;;;10.10;3.40;;;8.40;1.00;;;;;;5080199;28;20460;-87
2024/02/04 00:33:21;;;;;;;5.17;2.63;;;8.40;1.00;;;;;;5021059;28;20477;-85
2024/02/04 00:35:55;;;;;;;6.17;2.77;;;8.30;1.00;;;;;;5045140;28;20479;-88
2024/02/04 00:38:22;;;;;;;4.20;2.37;;;8.20;99.90;;;;;;5057126;28;20455;-86
2024/02/04 00:40:49;;;;;;;7.53;4.00;;;8.10;99.90;;;;;;5060495;28;20469;-86
2024/02/04 00:43:16;;;;;;;10.20;3.20;;;8.10;99.90;;;;;;5044375;28;20510;-88
2024/02/04 00:45:43;;;;;;;6.30;2.07;;;8.10;99.90;;;;;;5042697;28;20450;-87
2024/02/04 00:48:10;;;;;;;7.67;2.30;;;8.10;99.90;;;;;;5042868;28;20478;-87
2024/02/04 00:50:38;;;;;;;7.90;2.23;;;8.00;99.90;;;;;;5044176;28;20469;-88
2024/02/04 00:53:05;;;;;;;7.07;2.60;;;8.00;99.90;;;;;;5044457;28;20454;-87
2024/02/04 00:55:32;;;;;;;4.37;2.80;;;7.90;99.90;;;;;;5049854;28;20467;-86
2024/02/04 00:58:01;;;;;;;2.80;2.07;;;7.80;99.90;;;;;;5058594;28;20413;-86
2024/02/04 01:00:28;;;;;;;7.60;2.37;;;7.70;99.90;;;;;;5043306;28;20516;-86
2024/02/04 01:02:55;;;;;;;9.00;2.97;;;7.70;99.90;;;;;;5044292;28;20484;-87
2024/02/04 01:05:21;;;;;;;5.50;2.53;;;7.70;99.90;;;;;;5043267;28;20493;-87
2024/02/04 01:07:50;;;;;;;11.40;3.00;;;7.70;99.90;;;;;;5044420;28;20910;-87
2024/02/04 01:10:17;;;;;;;17.80;3.50;;;7.60;99.90;;;;;;5044230;28;20566;-88
2024/02/04 01:12:43;;;;;;;8.90;3.60;;;7.50;99.90;;;;;;5044322;28;20448;-87
2024/02/04 01:15:11;;;;;;;12.20;2.60;;;7.50;99.90;;;;;;5044564;28;20482;-88
2024/02/04 01:17:37;;;;;;;10.02;3.85;;;7.50;99.90;;;;;;5048889;28;20199;-86
2024/02/04 01:20:05;;;;;;;7.20;3.23;;;7.30;99.90;;;;;;5054914;28;20266;-88
2024/02/04 01:22:32;;;;;;;8.57;4.80;;;7.20;99.90;;;;;;5047420;28;20446;-87
2024/02/04 01:25:00;;;;;;;6.63;2.70;;;7.20;99.90;;;;;;5044217;28;20881;-87
2024/02/04 01:27:27;;;;;;;9.53;3.07;;;7.20;99.90;;;;;;5043550;28;20572;-89
2024/02/04 01:29:56;;;;;;;8.43;2.20;;;7.10;99.90;;;;;;5042273;28;20519;-87
2024/02/04 01:32:25;;;;;;;8.38;2.83;;;7.10;99.90;;;;;;5044072;28;20456;-87
2024/02/04 01:34:52;;;;;;;2.90;2.00;;;7.10;99.90;;;;;;5042356;28;20204;-88
2024/02/04 01:37:19;;;;;;;7.27;2.63;;;7.10;99.90;;;;;;5042753;28;20464;-88
2024/02/04 01:39:46;;;;;;;10.93;2.73;;;7.10;1.00;;;;;;5040199;28;20486;-89
2024/02/04 01:42:14;;;;;;;10.67;2.90;;;7.20;1.00;;;;;;5040692;28;20470;-88
2024/02/04 01:44:41;;;;;;;5.00;2.60;;;7.10;99.90;;;;;;5038322;28;20452;-88
2024/02/04 01:47:09;;;;;;;12.77;3.60;;;7.20;99.90;;;;;;5037848;28;21014;-88
2024/02/04 01:49:36;;;;;;;7.17;2.60;;;7.10;99.90;;;;;;5039850;28;20470;-87
2024/02/04 01:52:04;;;;;;;8.63;2.37;;;7.00;99.90;;;;;;5042758;28;20428;-88
2024/02/04 01:54:32;;;;;;;9.70;3.13;;;6.90;99.90;;;;;;5046525;28;20537;-87
2024/02/04 01:57:01;;;;;;;7.00;3.13;;;6.90;1.00;;;;;;5041480;28;20230;-88
2024/02/04 01:59:30;;;;;;;15.07;2.97;;;6.80;1.00;;;;;;5041424;28;20226;-87
2024/02/04 02:01:58;;;;;;;15.75;3.83;;;6.80;1.00;;;;;;5042068;28;20533;-88
2024/02/04 02:04:26;;;;;;;10.10;3.30;;;6.80;1.00;;;;;;5037781;28;20294;-87
2024/02/04 02:06:54;;;;;;;11.88;2.92;;;6.70;1.00;;;;;;5041462;28;20569;-87
2024/02/04 02:09:21;;;;;;;6.45;3.20;;;6.80;1.00;;;;;;5042642;28;20227;-89
2024/02/04 02:12:08;;;;;;;8.40;2.83;;;6.80;1.00;;;;;;5041854;28;20239;-87
2024/02/04 02:14:40;;;;;;;9.75;2.75;;;6.80;1.00;;;;;;5043390;28;20264;-86
2024/02/04 02:20:24;;;;;;;10.38;2.50;;;6.80;1.00;;;;;;5022280;28;20309;-87
2024/02/04 02:23:00;;;;;;;14.52;3.20;;;6.80;1.00;;;;;;5039961;28;20616;-86
2024/02/04 02:25:29;;;;;;;6.13;2.60;;;6.80;1.00;;;;;;5041632;28;20195;-86
2024/02/04 02:27:55;;;;;;;12.07;2.75;;;6.80;1.00;;;;;;5049017;28;20214;-85
2024/02/04 02:30:22;;;;;;;7.20;3.00;;;6.70;1.00;;;;;;5056181;28;20211;-84
2024/02/04 02:32:49;;;;;;;4.95;2.40;;;6.70;1.00;;;;;;5057616;28;20473;-86
2024/02/04 02:35:17;;;;;;;4.15;3.40;;;6.70;1.00;;;;;;5058342;28;20196;-86
2024/02/04 02:37:54;;;;;;;8.77;3.00;;;6.70;1.00;;;;;;5057217;28;20179;-87
2024/02/04 02:40:27;;;;;;;7.07;3.83;;;6.60;1.00;;;;;;5044196;28;20294;-87
2024/02/04 02:42:58;;;;;;;12.27;3.40;;;6.60;1.00;;;;;;5043974;28;20203;-88
2024/02/04 02:45:27;;;;;;;7.28;2.47;;;6.70;1.00;;;;;;5044329;28;20222;-87
2024/02/04 02:47:54;;;;;;;4.75;2.03;;;6.60;1.00;;;;;;5042286;28;20254;-87
2024/02/04 02:50:22;;;;;;;6.88;2.17;;;6.60;1.00;;;;;;5042051;28;20251;-88
2024/02/04 02:52:49;;;;;;;11.95;3.88;;;6.60;1.00;;;;;;5041985;28;20200;-88
2024/02/04 02:55:16;;;;;;;9.90;3.05;;;6.60;1.00;;;;;;5041111;28;20207;-87
2024/02/04 02:57:42;;;;;;;5.80;2.35;;;6.70;1.00;;;;;;5041822;28;20286;-87
2024/02/04 03:00:12;;;;;;;9.05;2.75;;;6.70;1.00;;;;;;5042248;28;20266;-87
2024/02/04 03:02:39;;;;;;;8.50;3.05;;;6.60;1.00;;;;;;5046629;28;20242;-88
2024/02/04 03:05:06;;;;;;;7.35;3.85;;;6.60;1.00;;;;;;5042951;28;20232;-88
2024/02/04 03:07:33;;;;;;;10.82;2.80;;;6.60;1.00;;;;;;5049360;28;20247;-88
2024/02/04 03:10:00;;;;;;;7.10;2.92;;;6.60;1.00;;;;;;5058022;28;20223;-88
2024/02/04 03:12:27;;;;;;;9.70;3.13;;;6.60;1.00;;;;;;5056268;28;20206;-88
2024/02/04 03:14:53;;;;;;;5.82;2.53;;;6.60;1.00;;;;;;5040259;28;20295;-88
2024/02/04 03:17:22;;;;;;;10.30;3.80;;;6.70;1.00;;;;;;5038360;28;20203;-87
2024/02/04 03:19:51;;;;;;;9.13;3.30;;;6.70;1.00;;;;;;5037750;28;20269;-88
2024/02/04 03:22:18;;;;;;;7.72;2.85;;;6.80;1.00;;;;;;5038621;28;20211;-87
2024/02/04 03:24:45;;;;;;;10.20;4.18;;;6.90;1.00;;;;;;5044523;28;20267;-87
2024/02/04 03:27:12;;;;;;;9.55;3.20;;;6.90;1.00;;;;;;5058609;28;20214;-87
2024/02/04 03:29:39;;;;;;;10.30;4.63;;;7.00;1.00;;;;;;5048874;28;20771;-87
2024/02/04 03:32:06;;;;;;;8.00;4.18;;;7.00;1.00;;;;;;5041169;28;20386;-87
2024/02/04 03:34:35;;;;;;;9.82;3.20;;;7.00;1.00;;;;;;5054175;28;20215;-88
2024/02/04 03:37:02;;;;;;;6.13;3.63;;;7.00;1.00;;;;;;5062001;28;20191;-86
2024/02/04 03:39:29;;;;;;;5.78;3.00;;;7.10;1.00;;;;;;5060799;28;20223;-87
2024/02/04 03:41:56;;;;;;;10.82;3.55;;;7.10;1.00;;;;;;5060731;28;20250;-86
2024/02/04 03:44:22;;;;;;;7.28;3.22;;;7.10;1.00;;;;;;5061946;28;20224;-87
2024/02/04 03:46:50;;;;;;;8.52;3.50;;;7.10;1.00;;;;;;5060469;28;20240;-88
2024/02/04 03:49:17;;;;;;;16.48;3.95;;;7.20;1.00;;;;;;5059966;28;20212;-87
2024/02/04 03:51:45;;;;;;;5.45;3.50;;;7.10;1.00;;;;;;5058607;28;20214;-87
2024/02/04 03:54:12;;;;;;;5.85;3.28;;;7.20;1.00;;;;;;5052423;28;20291;-87
2024/02/04 03:56:39;;;;;;;6.07;3.25;;;7.10;1.00;;;;;;5045821;28;20203;-87
2024/02/04 03:59:06;;;;;;;5.45;2.95;;;7.10;1.00;;;;;;5053645;28;20235;-87
2024/02/04 04:01:33;;;;;;;12.70;3.33;;;7.20;1.00;;;;;;5061562;28;20188;-88
2024/02/04 04:04:00;;;;;;;6.70;3.00;;;7.10;1.00;;;;;;5059526;28;20450;-87
2024/02/04 04:06:27;;;;;;;7.33;3.50;;;7.20;1.00;;;;;;5057701;28;20484;-87
2024/02/04 04:08:58;;;;;;;5.87;3.17;;;7.10;1.00;;;;;;5055562;28;20557;-87
2024/02/04 04:11:25;;;;;;;6.13;3.60;;;7.10;1.00;;;;;;5058706;28;20386;-88
2024/02/04 04:13:52;;;;;;;5.13;3.03;;;7.00;1.00;;;;;;5053957;28;20195;-87
2024/02/04 04:16:22;;;;;;;7.82;3.67;;;7.00;1.00;;;;;;5046778;28;20586;-87
2024/02/04 04:18:49;;;;;;;3.95;2.78;;;6.90;1.00;;;;;;5045617;28;20216;-88
2024/02/04 04:21:16;;;;;;;7.35;3.45;;;7.00;1.00;;;;;;5044458;28;20207;-87
2024/02/04 04:23:42;;;;;;;6.60;3.63;;;6.90;1.00;;;;;;5045833;28;20296;-88
2024/02/04 04:26:11;;;;;;;7.57;2.73;;;6.80;1.00;;;;;;5046041;28;20450;-87
2024/02/04 04:28:37;;;;;;;4.55;2.60;;;6.80;1.00;;;;;;5046942;28;20490;-87
2024/02/04 04:31:05;;;;;;;8.52;2.65;;;6.80;1.00;;;;;;5044968;28;20208;-87
2024/02/04 04:33:31;;;;;;;9.57;3.53;;;6.80;1.00;;;;;;5044165;28;20696;-87
2024/02/04 04:35:58;;;;;;;6.95;3.33;;;6.80;1.00;;;;;;5044839;28;20307;-87
2024/02/04 04:38:25;;;;;;;11.75;3.45;;;6.70;1.00;;;;;;5043409;28;20250;-87
2024/02/04 04:40:52;;;;;;;5.43;2.72;;;6.70;1.00;;;;;;5048199;28;20267;-86
2024/02/04 04:43:20;;;;;;;5.53;3.40;;;6.70;1.00;;;;;;5039589;28;20199;-86
2024/02/04 04:45:47;;;;;;;8.73;2.60;;;6.70;1.00;;;;;;5040992;28;20206;-87
2024/02/04 04:48:14;;;;;;;6.13;2.63;;;6.60;1.00;;;;;;5055336;28;20250;-86
2024/02/04 04:50:41;;;;;;;3.40;2.45;;;6.70;1.00;;;;;;5056644;28;20271;-87
2024/02/04 04:53:08;;;;;;;5.90;2.25;;;6.60;1.00;;;;;;5051099;28;20224;-87
2024/02/04 04:55:34;;;;;;;4.95;3.10;;;6.60;1.00;;;;;;5040017;28;20254;-86
2024/02/04 04:58:01;;;;;;;10.52;2.45;;;6.60;1.00;;;;;;5039617;28;20242;-86
2024/02/04 05:00:29;;;;;;;6.72;3.08;;;6.50;1.00;;;;;;5042677;28;20287;-86
2024/02/04 05:02:56;;;;;;;5.50;2.87;;;6.50;1.00;;;;;;5047033;28;20234;-86
2024/02/04 05:05:23;;;;;;;3.85;2.40;;;6.50;1.00;;;;;;5039876;28;20530;-86
2024/02/04 05:07:50;;;;;;;4.32;2.88;;;6.50;1.00;;;;;;5038546;28;20290;-87
2024/02/04 05:10:17;;;;;;;5.30;2.65;;;6.40;1.00;;;;;;5038109;28;20219;-86
2024/02/04 05:12:43;;;;;;;5.80;2.28;;;6.40;1.00;;;;;;5039179;28;20207;-87
2024/02/04 05:15:10;;;;;;;3.50;3.13;;;6.40;1.00;;;;;;5038922;28;20207;-86
2024/02/04 05:17:39;;;;;;;5.07;2.10;;;6.40;1.00;;;;;;5039870;28;20204;-87
2024/02/04 05:20:07;;;;;;;9.00;3.03;;;6.40;1.00;;;;;;5039380;28;20719;-86
2024/02/04 05:22:34;;;;;;;8.27;2.35;;;6.40;1.00;;;;;;5043126;28;20239;-85
2024/02/04 05:25:01;;;;;;;6.53;3.10;;;6.40;1.00;;;;;;5039505;28;20216;-87
2024/02/04 05:27:28;;;;;;;4.70;2.20;;;6.40;1.00;;;;;;5039634;28;20261;-87
2024/02/04 05:29:55;;;;;;;4.43;2.30;;;6.40;1.00;;;;;;5039179;28;20257;-87
2024/02/04 05:32:22;;;;;;;5.57;3.10;;;6.40;1.00;;;;;;5039423;28;20271;-87
2024/02/04 05:34:50;;;;;;;3.42;3.10;;;6.30;1.00;;;;;;5039160;28;20203;-86
2024/02/04 05:37:17;;;;;;;22.88;11.45;;;6.30;1.00;;;;;;5038840;28;20204;-86
2024/02/04 05:39:43;;;;;;;23.20;13.82;;;6.30;1.00;;;;;;5038045;28;20314;-87
2024/02/04 05:42:10;;;;;;;20.60;11.30;;;6.30;1.00;;;;;;5037854;28;20211;-87
2024/02/04 05:44:37;;;;;;;17.98;14.48;;;6.40;1.00;;;;;;5037065;28;20211;-87
2024/02/04 05:47:04;;;;;;;7.60;5.53;;;6.40;1.00;;;;;;5036619;28;20306;-87
2024/02/04 05:49:31;;;;;;;5.78;3.35;;;6.40;1.00;;;;;;5037122;28;20228;-86
2024/02/04 05:51:59;;;;;;;9.75;3.40;;;6.40;1.00;;;;;;5037503;28;20291;-88
2024/02/04 05:54:26;;;;;;;5.45;3.80;;;6.40;99.90;;;;;;5038811;28;20294;-87
2024/02/04 05:56:53;;;;;;;6.88;4.30;;;6.40;99.90;;;;;;5036662;28;20282;-89
2024/02/04 05:59:19;;;;;;;6.55;5.88;;;6.40;99.90;;;;;;5047475;28;20282;-87
2024/02/04 06:01:46;;;;;;;5.00;4.13;;;6.50;99.90;;;;;;5048524;28;20204;-87
2024/02/04 06:04:13;;;;;;;9.57;7.13;;;6.40;99.90;;;;;;5043376;28;20286;-87
2024/02/04 06:06:40;;;;;;;10.63;5.65;;;6.50;99.90;;;;;;5041561;28;20287;-87
2024/02/04 06:09:10;;;;;;;4.43;2.85;;;6.50;99.90;;;;;;5037625;28;20259;-88
2024/02/04 06:11:37;;;;;;;6.35;3.25;;;6.50;99.90;;;;;;5039010;28;20200;-86
2024/02/04 06:14:03;;;;;;;14.57;8.32;;;6.50;1.00;;;;;;5037947;28;20544;-86
2024/02/04 06:16:30;;;;;;;12.80;8.80;;;6.50;99.90;;;;;;5036118;28;20298;-86
2024/02/04 06:18:58;;;;;;;5.78;4.43;;;6.60;99.90;;;;;;5037607;28;20223;-86
2024/02/04 06:21:24;;;;;;;8.95;3.28;;;6.60;99.90;;;;;;5037364;28;20254;-86
2024/02/04 06:23:51;;;;;;;5.63;3.05;;;6.60;99.90;;;;;;5037200;28;20210;-86
2024/02/04 06:26:20;;;;;;;15.98;4.03;;;6.70;99.90;;;;;;5041349;28;20639;-87
2024/02/04 06:28:48;;;;;;;5.95;2.85;;;6.70;99.90;;;;;;5037778;28;20223;-86
2024/02/04 06:31:15;;;;;;;4.75;2.67;;;6.80;99.90;;;;;;5036690;28;20267;-86
2024/02/04 06:33:42;;;;;;;6.93;3.07;;;6.80;99.90;;;;;;5037247;28;20294;-85
2024/02/04 06:36:10;;;;;;;4.18;2.50;;;6.80;99.90;;;;;;5049711;28;20529;-86
2024/02/04 06:38:37;;;;;;;10.10;3.13;;;6.70;99.90;;;;;;5035771;28;20231;-86
2024/02/04 06:41:05;;;;;;;4.70;3.42;;;6.80;99.90;;;;;;5036571;28;20271;-86
2024/02/04 06:43:33;;;;;;;3.83;3.47;;;6.80;99.90;;;;;;5037699;28;20203;-86
2024/02/04 06:46:00;;;;;;;7.90;3.10;;;6.70;99.90;;;;;;5036653;28;20213;-87
2024/02/04 06:48:27;;;;;;;6.30;4.18;;;6.70;99.90;;;;;;5037322;28;20220;-86
2024/02/04 06:50:53;;;;;;;5.88;3.72;;;6.70;99.90;;;;;;5037312;28;20310;-87
2024/02/04 06:53:20;;;;;;;5.68;3.67;;;6.80;1.00;;;;;;5056346;28;20258;-87
2024/02/04 06:55:47;;;;;;;8.73;4.07;;;6.80;1.00;;;;;;5058615;28;20251;-83
2024/02/04 06:58:14;;;;;;;8.27;4.40;;;6.80;1.00;;;;;;5058564;28;20179;-85
2024/02/04 07:00:42;;;;;;;12.30;4.88;;;6.80;1.00;;;;;;5058678;28;20184;-86
2024/02/04 07:03:09;;;;;;;6.25;4.88;;;6.70;1.00;;;;;;5059905;28;20196;-86
2024/02/04 07:05:36;;;;;;;10.30;5.43;;;6.80;1.00;;;;;;5060959;28;20211;-87
2024/02/04 07:08:03;;;;;;;5.32;4.63;;;6.80;1.00;;;;;;5047102;28;20576;-88
2024/02/04 07:10:30;;;;;;;5.70;4.95;;;6.70;1.00;;;;;;5052696;28;20224;-89
2024/02/04 07:13:00;;;;;;;7.95;4.90;;;6.70;1.00;;;;;;5051398;28;20199;-88
2024/02/04 07:15:27;;;;;;;4.47;4.07;;;6.80;1.00;;;;;;5056304;28;20225;-88
2024/02/04 07:17:55;;;;;;;14.13;5.18;;;6.80;1.00;;;;;;5061851;28;20186;-86
2024/02/04 07:20:22;;;;;;;9.40;4.70;;;6.80;1.00;;;;;;5062522;28;20227;-86
2024/02/04 07:22:49;;;;;;;7.72;4.40;;;6.80;1.00;;;;;;5062162;28;20247;-87
2024/02/04 07:25:15;;;;;;;7.37;4.20;;;6.80;99.90;;;;;;5048351;28;20230;-88
2024/02/04 07:27:42;;;;;;;8.85;5.10;;;6.80;99.90;;;;;;5041192;28;20617;-86
2024/02/04 07:30:10;;;;;;;6.18;4.00;;;6.80;99.90;;;;;;5041852;28;20254;-88
2024/02/04 07:32:37;;;;;;;8.05;4.38;;;6.90;99.90;;;;;;5052627;28;20206;-89
2024/02/04 07:35:06;;;;;;;8.13;4.28;;;6.90;99.90;;;;;;5042156;28;20204;-87
2024/02/04 07:37:33;;;;;;;8.03;4.83;;;6.90;99.90;;;;;;5040350;28;20219;-87
2024/02/04 07:40:01;;;;;;;12.60;4.63;;;6.90;99.90;;;;;;5040510;28;20448;-87
2024/02/04 07:42:29;;;;;;;10.73;4.70;;;6.90;99.90;;;;;;5041299;28;20210;-88
2024/02/04 07:44:56;;;;;;;6.93;3.78;;;6.90;99.90;;;;;;5039990;28;20241;-87
2024/02/04 07:47:23;;;;;;;6.63;4.47;;;7.00;99.90;;;;;;5040471;28;20269;-88
2024/02/04 07:49:50;;;;;;;7.10;4.70;;;6.90;99.90;;;;;;5041093;28;20291;-87
2024/02/04 07:52:18;;;;;;;8.75;4.68;;;6.90;99.90;;;;;;5039897;28;20298;-86
2024/02/04 07:54:47;;;;;;;7.35;4.85;;;7.00;99.90;;;;;;5039506;28;20616;-88
2024/02/04 07:57:14;;;;;;;8.23;5.30;;;7.00;99.90;;;;;;5040633;28;20214;-88
2024/02/04 07:59:41;;;;;;;10.63;5.70;;;7.00;99.90;;;;;;5054217;28;20458;-89
2024/02/04 08:02:10;;;;;;;12.47;4.70;;;7.00;99.90;;;;;;5055078;28;20231;-86
2024/02/04 08:04:37;;;;;;;11.20;5.68;;;7.10;99.90;;;;;;5055351;28;20464;-88
2024/02/04 08:07:03;;;;;;;13.43;4.97;;;7.10;99.90;;;;;;5059370;28;20211;-87
2024/02/04 08:09:31;;;;;;;6.05;5.45;;;7.10;99.90;;;;;;5059162;28;20532;-87
2024/02/04 08:11:58;;;;;;;4.75;3.65;;;7.10;99.90;;;;;;5049733;28;20242;-88
2024/02/04 08:14:25;;;;;;;11.63;5.20;;;7.20;99.90;;;;;;5050951;28;20290;-88
2024/02/04 08:16:52;;;;;;;8.60;5.27;;;7.20;99.90;;;;;;5043406;28;20883;-89
2024/02/04 08:19:20;;;;;;;10.83;4.67;;;7.30;99.90;;;;;;5052755;28;20509;-88
2024/02/04 08:21:47;;;;;;;9.83;4.63;;;7.20;99.90;;;;;;5051925;28;20421;-87
2024/02/04 08:24:14;;;;;;;6.32;4.03;;;7.30;99.90;;;;;;5042740;28;20489;-88
2024/02/04 08:26:42;;;;;;;6.25;4.32;;;7.40;99.90;;;;;;5043681;28;20203;-89
2024/02/04 08:29:09;;;;;;;8.10;3.77;;;7.40;99.90;;;;;;5042819;28;20247;-88
2024/02/04 08:31:36;;;;;;;11.47;4.43;;;7.40;60.20;;;;;;5041429;28;20429;-87
2024/02/04 08:34:03;;;;;;;10.85;4.05;;;7.40;5.30;;;;;;5044348;28;20837;-88
2024/02/04 08:36:31;;;;;;;7.13;3.60;;;7.50;44.80;;;;;;5043117;28;20659;-88
2024/02/04 08:38:57;;;;;;;7.43;3.87;;;7.50;1.00;;;;;;5040272;28;20474;-87
2024/02/04 08:41:24;;;;;;;10.68;4.47;;;7.60;1.00;;;;;;5041832;28;20443;-87
2024/02/04 08:43:52;;;;;;;7.90;4.30;;;7.60;1.00;;;;;;5045968;28;20295;-86
2024/02/04 08:46:24;;;;;;;9.30;4.40;;;7.50;1.00;;;;;;5047151;28;20473;-86
2024/02/04 08:48:51;;;;;;;8.70;3.83;;;7.50;1.00;;;;;;5048078;28;20879;-87
2024/02/04 08:51:19;;;;;;;10.38;4.70;;;7.50;1.00;;;;;;5045171;28;20491;-87
2024/02/04 08:53:46;;;;;;;7.93;3.93;;;7.50;1.00;;;;;;5041034;28;20200;-88
2024/02/04 08:56:13;;;;;;;5.67;3.77;;;7.60;1.00;;;;;;5040840;28;20450;-87
2024/02/04 08:58:40;;;;;;;7.87;4.57;;;7.60;1.00;;;;;;5049447;28;20462;-87
2024/02/04 09:01:08;;;;;;;8.10;4.07;;;7.60;1.00;;;;;;5044754;28;20421;-89
2024/02/04 09:03:36;;;;;;;8.75;4.00;;;7.60;1.00;;;;;;5043366;28;20470;-86
2024/02/04 09:06:03;;;;;;;4.80;3.27;;;7.70;1.00;;;;;;5042065;28;20208;-87
2024/02/04 09:11:27;;;;;;;8.87;3.70;;;7.60;1.00;;;;;;5036386;28;20494;-87
2024/02/04 09:13:57;;;;;;;6.70;3.30;;;7.70;1.00;;;;;;5041164;28;20442;-87
2024/02/04 09:16:28;;;;;;;7.93;4.40;;;7.80;1.00;;;;;;5040077;28;20432;-86
2024/02/04 09:18:58;;;;;;;6.63;3.67;;;7.70;1.00;;;;;;5040349;28;20809;-88
2024/02/04 09:21:26;;;;;;;8.13;3.67;;;7.70;1.00;;;;;;5054927;28;20445;-87
2024/02/04 09:23:53;;;;;;;6.30;3.30;;;7.80;1.00;;;;;;5055288;28;20460;-87
2024/02/04 09:26:20;;;;;;;10.77;3.37;;;7.90;1.00;;;;;;5049592;28;20442;-85
2024/02/04 09:28:47;;;;;;;4.70;3.03;;;7.90;99.90;;;;;;5046795;28;20808;-87
2024/02/04 09:31:13;;;;;;;6.00;2.47;;;7.90;99.90;;;;;;5040886;28;20467;-87
2024/02/04 09:33:42;;;;;;;6.20;2.97;;;7.90;99.90;;;;;;5041492;28;20413;-88
2024/02/04 09:36:09;;;;;;;6.93;2.43;;;8.00;99.90;;;;;;5042756;28;20454;-85
2024/02/04 09:38:36;;;;;;;10.30;3.50;;;8.00;99.90;;;;;;5040982;28;20474;-86
2024/02/04 09:41:04;;;;;;;16.97;3.20;;;8.00;99.90;;;;;;5044709;28;20422;-87
2024/02/04 09:43:32;;;;;;;9.87;3.10;;;8.10;99.90;;;;;;5042076;28;20452;-87
2024/02/04 09:46:00;;;;;;;6.07;2.67;;;8.10;99.90;;;;;;5041614;28;20425;-86
2024/02/04 09:48:33;;;;;;;10.30;2.90;;;8.10;99.90;;;;;;5040986;28;20501;-88
2024/02/04 09:51:01;;;;;;;8.23;2.57;;;8.30;99.90;;;;;;5041617;28;20557;-87
2024/02/04 09:53:34;;;;;;;6.73;2.50;;;8.30;1.00;;;;;;5041438;28;20442;-86
2024/02/04 09:56:03;;;;;;;5.10;2.60;;;8.20;1.00;;;;;;5047673;28;20437;-86
2024/02/04 09:58:30;;;;;;;8.57;2.50;;;8.50;1.00;;;;;;5040555;28;20534;-86
2024/02/04 10:00:57;;;;;;;7.73;2.33;;;8.50;1.00;;;;;;5039279;28;20439;-87
2024/02/04 10:03:24;;;;;;;6.97;1.93;;;8.40;1.00;;;;;;5037850;28;20461;-87
2024/02/04 10:05:51;;;;;;;7.07;3.53;;;8.40;1.00;;;;;;5038683;28;20517;-87
2024/02/04 10:08:27;;;;;;;6.30;2.10;;;8.50;1.00;;;;;;5045956;28;20503;-85
2024/02/04 10:10:54;;;;;;;7.83;2.73;;;8.50;1.00;;;;;;5058543;28;20454;-84
2024/02/04 10:13:22;;;;;;;13.63;3.07;;;8.50;99.90;;;;;;5058378;28;20431;-84
2024/02/04 10:15:49;;;;;;;2.27;1.50;;;8.60;99.90;;;;;;5054110;28;20461;-85
2024/02/04 10:18:18;;;;;;;3.23;2.10;;;8.60;99.90;;;;;;5057280;28;20439;-86
2024/02/04 10:20:45;;;;;;;2.00;1.80;;;8.60;99.90;;;;;;5058129;28;20433;-86
2024/02/04 10:23:12;;;;;;;3.80;2.20;;;8.60;99.90;;;;;;5055185;28;20447;-85
2024/02/04 10:25:40;;;;;;;6.77;2.00;;;8.60;99.90;;;;;;5049615;28;20935;-87
2024/02/04 10:28:07;;;;;;;8.47;2.23;;;8.60;99.90;;;;;;5047123;28;20507;-86
2024/02/04 10:30:34;;;;;;;9.43;2.50;;;8.60;99.90;;;;;;5043013;28;20516;-85
2024/02/04 10:33:01;;;;;;;4.10;2.37;;;8.60;99.90;;;;;;5051466;28;20443;-86
2024/02/04 10:35:28;;;;;;;5.63;1.73;;;8.60;99.90;;;;;;5050996;28;20454;-87
2024/02/04 10:37:55;;;;;;;4.20;1.87;;;8.70;99.90;;;;;;5055930;28;20444;-86
2024/02/04 10:40:22;;;;;;;2.97;1.93;;;8.70;99.90;;;;;;5046560;23;20556;-86
2024/02/04 10:42:55;;;;;;;7.10;2.30;;;8.80;99.90;;;;;;5021492;28;20467;-86
2024/02/04 10:45:23;;;;;;;2.77;1.60;;;8.90;99.90;;;;;;5021872;28;20482;-86
2024/02/04 10:48:03;;;;;;;2.60;1.83;;;8.90;99.90;;;;;;5037797;28;20447;-86
2024/02/04 10:50:33;;;;;;;6.20;2.33;;;8.90;99.90;;;;;;5053530;28;20544;-86
2024/02/04 10:53:07;;;;;;;8.37;2.37;;;8.90;99.90;;;;;;5044309;28;20957;-86
2024/02/04 10:55:38;;;;;;;4.10;2.20;;;9.00;99.90;;;;;;5041889;28;20445;-86
2024/02/04 10:58:07;;;;;;;4.47;1.90;;;9.00;90.60;;;;;;5047247;28;20430;-86
2024/02/04 11:00:35;;;;;;;3.53;2.13;;;8.90;94.30;;;;;;5051266;28;20493;-85
2024/02/04 11:03:04;;;;;;;4.27;1.70;;;8.80;44.40;;;;;;5049500;28;20443;-85
2024/02/04 11:05:34;;;;;;;5.20;1.80;;;9.00;99.90;;;;;;5048529;28;20446;-86
2024/02/04 11:08:03;;;;;;;5.23;2.10;;;9.10;99.90;;;;;;5051238;28;20434;-85
2024/02/04 11:10:32;;;;;;;4.73;1.90;;;9.10;99.90;;;;;;5046238;28;20485;-86
2024/02/04 11:13:00;;;;;;;9.30;2.20;;;9.00;32.70;;;;;;5046397;28;20486;-85
2024/02/04 11:15:36;;;;;;;10.30;2.40;;;9.00;65.60;;;;;;5055979;28;20442;-85
2024/02/04 11:18:34;;;;;;;5.87;3.33;;;9.00;23.10;;;;;;5057311;28;20405;-84
2024/02/04 11:21:24;;;;;;;5.67;2.00;;;9.10;99.90;;;;;;5038182;28;20452;-83
2024/02/04 11:24:07;;;;;;;3.73;2.00;;;9.10;17.80;;;;;;5045219;28;20462;-87
2024/02/04 11:26:35;;;;;;;3.40;1.73;;;9.10;62.60;;;;;;5042502;28;20426;-85
2024/02/04 11:29:02;;;;;;;10.20;2.60;;;9.10;17.80;;;;;;5047319;28;20805;-86
2024/02/04 11:31:31;;;;;;;3.27;1.63;;;9.00;15.50;;;;;;5050846;28;20499;-87
2024/02/04 11:33:58;;;;;;;6.20;2.47;;;9.10;22.40;;;;;;5049594;28;20439;-87
2024/02/04 11:36:26;;;;;;;2.70;2.00;;;9.20;62.60;;;;;;5049962;28;21005;-85
2024/02/04 11:38:53;;;;;;;3.80;1.90;;;9.20;19.00;;;;;;5046247;28;20454;-87
2024/02/04 11:41:23;;;;;;;8.67;2.70;;;9.10;4.20;;;;;;5043650;28;20534;-86
2024/02/04 11:43:53;;;;;;;5.13;2.10;;;9.10;1.00;;;;;;5043514;28;20805;-86
2024/02/04 11:46:21;;;;;;;8.80;2.40;;;9.00;1.00;;;;;;5045269;28;20533;-86
2024/02/04 11:48:54;;;;;;;9.00;2.10;;;8.80;1.00;;;;;;5058443;28;20446;-86
2024/02/04 11:51:24;;;;;;;8.00;3.13;;;9.00;99.90;;;;;;5057905;28;20471;-87
2024/02/04 11:53:51;;;;;;;2.70;2.20;;;9.00;5.20;;;;;;5045524;28;20446;-87
2024/02/04 11:56:19;;;;;;;3.77;1.93;;;9.00;1.00;;;;;;5044997;28;21069;-86
2024/02/04 11:58:46;;;;;;;9.73;2.57;;;9.10;29.80;;;;;;5044052;28;20489;-87
2024/02/04 12:01:13;;;;;;;4.93;3.27;;;9.20;1.00;;;;;;5043676;28;20521;-86
2024/02/04 12:03:40;;;;;;;3.40;1.80;;;9.20;1.00;;;;;;5053504;28;20468;-87
2024/02/04 12:06:10;;;;;;;7.07;3.33;;;9.30;1.00;;;;;;5043190;28;20452;-87
2024/02/04 12:08:38;;;;;;;9.73;2.43;;;9.30;1.00;;;;;;5043888;28;20453;-87
2024/02/04 12:11:06;;;;;;;3.47;1.83;;;9.10;1.00;;;;;;5044771;28;20834;-88
2024/02/04 12:13:37;;;;;;;8.73;3.07;;;9.10;1.00;;;;;;5044380;28;20466;-87
2024/02/04 12:16:05;;;;;;;7.37;2.50;;;9.20;1.00;;;;;;5044203;28;20481;-87
2024/02/04 12:18:35;;;;;;;3.67;2.40;;;9.30;54.00;;;;;;5057536;28;20449;-86
2024/02/04 12:21:02;;;;;;;6.30;2.27;;;9.30;1.00;;;;;;5054573;28;20445;-87
2024/02/04 12:23:32;;;;;;;5.27;2.10;;;9.20;1.00;;;;;;5044442;28;20858;-87
2024/02/04 12:25:59;;;;;;;5.07;2.20;;;9.10;1.00;;;;;;5054580;28;20442;-87
2024/02/04 12:28:26;;;;;;;5.80;1.97;;;9.00;1.00;;;;;;5052576;28;20442;-88
2024/02/04 12:30:58;;;;;;;5.67;2.10;;;9.00;1.00;;;;;;5047597;28;20490;-88
2024/02/04 12:33:25;;;;;;;6.90;1.90;;;9.10;1.00;;;;;;5043748;28;20450;-88
2024/02/04 12:35:52;;;;;;;5.33;2.30;;;8.90;1.00;;;;;;5041777;28;20450;-88
2024/02/04 12:38:19;;;;;;;6.80;2.30;;;8.90;1.00;;;;;;5052268;28;20434;-87
2024/02/04 12:40:47;;;;;;;2.83;1.57;;;8.90;4.20;;;;;;5048219;28;20453;-87
2024/02/04 12:43:14;;;;;;;3.57;1.83;;;8.80;1.00;;;;;;5042872;28;20416;-88
2024/02/04 12:45:42;;;;;;;5.37;1.83;;;8.80;17.50;;;;;;5042540;28;20906;-87
2024/02/04 12:48:10;;;;;;;5.40;2.67;;;8.80;1.00;;;;;;5040871;28;20473;-87
2024/02/04 12:50:38;;;;;;;6.83;2.80;;;8.90;1.00;;;;;;5040408;28;20517;-87
2024/02/04 12:53:07;;;;;;;4.63;1.90;;;8.80;1.00;;;;;;5040395;28;20450;-87
2024/02/04 12:55:35;;;;;;;1.80;1.43;;;8.90;57.20;;;;;;5041284;28;20441;-88
2024/02/04 12:58:05;;;;;;;6.93;2.20;;;8.90;1.00;;;;;;5041662;28;20466;-86
2024/02/04 13:00:32;;;;;;;2.63;1.70;;;8.90;1.00;;;;;;5040281;28;20474;-87
2024/02/04 13:03:00;;;;;;;3.33;1.83;;;8.90;1.00;;;;;;5040786;28;20443;-87
2024/02/04 13:05:29;;;;;;;3.60;1.90;;;8.80;1.00;;;;;;5040793;28;20470;-87
2024/02/04 13:07:57;;;;;;;2.87;2.27;;;8.80;1.00;;;;;;5043669;28;20446;-88
2024/02/04 13:10:25;;;;;;;6.90;2.03;;;8.80;1.00;;;;;;5048143;28;20523;-87
2024/02/04 13:13:05;;;;;;;3.57;2.23;;;8.90;1.00;;;;;;5048407;28;20473;-88